createdAt,value
2018-07-20T00:01:05.042Z,2.53
2018-07-20T00:03:32.237Z,2.50
2018-07-20T00:05:59.338Z,2.67
2018-07-20T00:08:26.460Z,2.53
2018-07-20T00:10:53.571Z,2.80
2018-07-20T00:13:20.791Z,3.03
2018-07-20T00:15:47.915Z,2.77
2018-07-20T00:18:15.339Z,2.70
2018-07-20T00:20:42.499Z,3.00
2018-07-20T00:23:09.625Z,3.27
2018-07-20T00:25:36.802Z,3.13
2018-07-20T00:28:04.229Z,2.90
2018-07-20T00:30:31.461Z,3.03
2018-07-20T00:32:58.594Z,2.67
2018-07-20T00:35:25.703Z,2.50
2018-07-20T00:37:52.831Z,2.57
2018-07-20T00:40:19.942Z,2.57
2018-07-20T00:42:47.051Z,2.40
2018-07-20T00:45:14.168Z,2.93
2018-07-20T00:47:41.279Z,3.00
2018-07-20T00:50:08.627Z,2.77
2018-07-20T00:52:35.822Z,2.60
2018-07-20T00:55:03.084Z,2.83
2018-07-20T00:57:30.280Z,2.60
2018-07-20T00:59:57.403Z,2.97
2018-07-20T01:02:24.539Z,2.27
2018-07-20T01:04:51.681Z,2.80
2018-07-20T01:07:18.812Z,2.43
2018-07-20T01:09:45.919Z,2.77
2018-07-20T01:12:13.080Z,2.27
2018-07-20T01:14:40.201Z,2.50
2018-07-20T01:17:07.358Z,2.60
2018-07-20T01:19:34.818Z,2.80
2018-07-20T01:22:02.023Z,2.73
2018-07-20T01:24:29.151Z,2.90
2018-07-20T01:26:56.254Z,2.23
2018-07-20T01:29:23.366Z,2.57
2018-07-20T01:31:50.472Z,2.50
2018-07-20T01:34:17.576Z,2.47
2018-07-20T01:36:44.669Z,2.67
2018-07-20T01:39:11.789Z,2.73
2018-07-20T01:41:39.398Z,2.90
2018-07-20T01:44:06.781Z,2.47
2018-07-20T01:46:34.069Z,2.57
2018-07-20T01:49:01.475Z,2.47
2018-07-20T01:51:28.597Z,2.70
2018-07-20T01:53:55.689Z,2.57
2018-07-20T01:56:22.811Z,2.70
2018-07-20T01:58:49.936Z,2.43
2018-07-20T02:01:17.048Z,2.70
2018-07-20T02:03:44.166Z,2.30
2018-07-20T02:06:11.298Z,2.80
2018-07-20T02:08:38.505Z,2.37
2018-07-20T02:11:05.718Z,2.80
2018-07-20T02:13:32.879Z,2.53
2018-07-20T02:16:00.018Z,2.57
2018-07-20T02:18:27.139Z,2.67
2018-07-20T02:20:54.267Z,2.33
2018-07-20T02:23:22.290Z,1.90
2018-07-20T02:25:49.403Z,2.20
2018-07-20T02:28:16.537Z,2.10
2018-07-20T02:30:49.786Z,2.50
2018-07-20T02:33:16.895Z,2.07
2018-07-20T02:35:44.013Z,2.23
2018-07-20T02:38:11.122Z,2.60
2018-07-20T02:40:38.256Z,2.20
2018-07-20T02:43:05.416Z,2.30
2018-07-20T02:45:32.566Z,2.67
2018-07-20T02:47:59.755Z,2.23
2018-07-20T02:50:27.005Z,2.43
2018-07-20T02:52:54.123Z,2.40
2018-07-20T02:55:21.311Z,2.43
2018-07-20T02:57:48.459Z,2.40
2018-07-20T03:00:15.574Z,3.00
2018-07-20T03:02:42.695Z,2.53
2018-07-20T03:05:09.840Z,2.73
2018-07-20T03:07:36.953Z,2.10
2018-07-20T03:10:04.275Z,2.50
2018-07-20T03:12:31.427Z,2.97
2018-07-20T03:14:58.531Z,2.00
2018-07-20T03:17:25.670Z,2.83
2018-07-20T03:19:52.783Z,2.93
2018-07-20T03:22:20.007Z,2.60
2018-07-20T03:24:47.146Z,2.30
2018-07-20T03:27:14.554Z,2.30
2018-07-20T03:29:41.674Z,2.37
2018-07-20T03:32:08.778Z,1.97
2018-07-20T03:34:35.875Z,2.40
2018-07-20T03:37:03.011Z,2.60
2018-07-20T03:39:30.114Z,2.40
2018-07-20T03:41:57.247Z,2.20
2018-07-20T03:44:24.374Z,2.43
2018-07-20T03:46:51.515Z,2.47
2018-07-20T03:49:18.970Z,2.90
2018-07-20T03:51:46.214Z,2.90
2018-07-20T03:54:13.367Z,3.00
2018-07-20T03:56:40.507Z,2.77
2018-07-20T03:59:07.651Z,2.60
2018-07-20T04:01:34.760Z,2.70
2018-07-20T04:04:01.864Z,2.93
2018-07-20T04:06:28.987Z,3.07
2018-07-20T04:08:56.090Z,2.60
2018-07-20T04:11:23.207Z,2.77
2018-07-20T04:13:50.399Z,2.37
2018-07-20T04:16:17.574Z,2.70
2018-07-20T04:18:44.739Z,2.93
2018-07-20T04:21:11.877Z,3.10
2018-07-20T04:23:38.996Z,2.83
2018-07-20T04:26:06.143Z,2.50
2018-07-20T04:28:33.263Z,2.73
2018-07-20T04:31:00.376Z,2.60
2018-07-20T04:33:27.471Z,3.00
2018-07-20T04:35:54.600Z,2.50
2018-07-20T04:38:21.734Z,2.70
2018-07-20T04:40:48.960Z,2.67
2018-07-20T04:43:16.095Z,2.60
2018-07-20T04:45:43.220Z,1.93
2018-07-20T04:48:10.355Z,2.80
2018-07-20T04:50:37.914Z,3.23
2018-07-20T04:53:05.106Z,2.67
2018-07-20T04:55:32.227Z,2.33
2018-07-20T04:57:59.347Z,2.70
2018-07-20T05:00:26.458Z,2.90
2018-07-20T05:02:53.584Z,2.87
2018-07-20T05:05:20.735Z,2.97
2018-07-20T05:07:47.885Z,3.07
2018-07-20T05:10:15.499Z,3.03
2018-07-20T05:12:42.797Z,3.67
2018-07-20T05:15:09.974Z,3.00
2018-07-20T05:17:37.231Z,3.87
2018-07-20T05:20:04.435Z,3.33
2018-07-20T05:22:31.563Z,3.20
2018-07-20T05:24:58.688Z,2.60
2018-07-20T05:27:25.835Z,2.70
2018-07-20T05:29:53.002Z,2.80
2018-07-20T05:32:20.191Z,2.13
2018-07-20T05:34:47.407Z,2.80
2018-07-20T05:37:14.647Z,2.87
2018-07-20T05:39:41.759Z,3.10
2018-07-20T05:42:08.875Z,2.50
2018-07-20T05:44:35.990Z,3.20
2018-07-20T05:47:03.143Z,3.20
2018-07-20T05:49:30.280Z,3.22
2018-07-20T05:51:57.430Z,3.12
2018-07-20T05:54:24.595Z,3.27
2018-07-20T05:56:51.754Z,3.35
2018-07-20T05:59:18.981Z,3.72
2018-07-20T06:01:46.404Z,3.02
2018-07-20T06:04:13.569Z,3.35
2018-07-20T06:06:40.703Z,3.60
2018-07-20T06:09:09.183Z,3.75
2018-07-20T06:11:36.362Z,3.33
2018-07-20T06:14:03.529Z,4.17
2018-07-20T06:16:30.622Z,3.72
2018-07-20T06:18:57.747Z,3.58
2018-07-20T06:21:24.908Z,3.98
2018-07-20T06:23:52.197Z,3.25
2018-07-20T06:26:19.547Z,3.98
2018-07-20T06:28:46.755Z,3.45
2018-07-20T06:31:13.986Z,3.92
2018-07-20T06:33:41.125Z,3.85
2018-07-20T06:36:08.511Z,3.35
2018-07-20T06:38:35.635Z,4.17
2018-07-20T06:41:02.775Z,3.47
2018-07-20T06:43:29.913Z,3.45
2018-07-20T06:45:57.051Z,3.30
2018-07-20T06:48:24.181Z,3.30
2018-07-20T06:50:51.406Z,3.60
2018-07-20T06:53:18.847Z,3.20
2018-07-20T06:55:46.077Z,3.30
2018-07-20T06:58:13.195Z,3.17
2018-07-20T07:00:40.330Z,3.10
2018-07-20T07:03:07.463Z,2.83
2018-07-20T07:05:34.562Z,2.75
2018-07-20T07:08:01.680Z,2.60
2018-07-20T07:10:28.843Z,3.15
2018-07-20T07:12:56.023Z,2.60
2018-07-20T07:15:23.180Z,3.12
2018-07-20T07:17:50.383Z,2.90
2018-07-20T07:20:17.638Z,2.50
2018-07-20T07:22:45.450Z,2.80
2018-07-20T07:25:12.567Z,2.95
2018-07-20T07:27:39.698Z,2.67
2018-07-20T07:30:06.833Z,2.45
2018-07-20T07:32:33.970Z,2.33
2018-07-20T07:35:01.143Z,2.67
2018-07-20T07:37:28.299Z,3.17
2018-07-20T07:39:55.464Z,2.58
2018-07-20T07:42:22.619Z,3.00
2018-07-20T07:44:50.070Z,2.75
2018-07-20T07:47:17.251Z,2.50
2018-07-20T07:49:44.430Z,2.60
2018-07-20T07:52:11.599Z,2.95
2018-07-20T07:54:38.743Z,2.83
2018-07-20T07:57:05.904Z,2.92
2018-07-20T07:59:33.059Z,2.60
2018-07-20T08:02:00.200Z,2.70
2018-07-20T08:04:27.327Z,2.98
2018-07-20T08:06:54.478Z,2.75
2018-07-20T08:09:21.704Z,2.60
2018-07-20T08:11:49.153Z,2.47
2018-07-20T08:14:16.408Z,3.27
2018-07-20T08:16:43.578Z,3.20
2018-07-20T08:19:10.703Z,2.52
2018-07-20T08:21:37.847Z,2.92
2018-07-20T08:24:05.220Z,2.50
2018-07-20T08:26:32.361Z,3.15
2018-07-20T08:28:59.519Z,2.42
2018-07-20T08:31:26.711Z,2.65
2018-07-20T08:33:53.879Z,2.67
2018-07-20T08:36:21.162Z,3.35
2018-07-20T08:38:48.420Z,2.72
2018-07-20T08:41:15.758Z,2.58
2018-07-20T08:43:43.134Z,2.72
2018-07-20T08:46:10.283Z,2.72
2018-07-20T08:48:37.569Z,2.95
2018-07-20T08:51:04.708Z,2.62
2018-07-20T08:53:31.912Z,2.60
2018-07-20T08:55:59.072Z,3.35
2018-07-20T08:58:26.231Z,2.42
2018-07-20T09:00:53.419Z,2.72
2018-07-20T09:03:20.731Z,2.45
2018-07-20T09:05:47.976Z,2.85
2018-07-20T09:08:15.147Z,2.52
2018-07-20T09:10:42.295Z,2.85
2018-07-20T09:13:09.450Z,3.02
2018-07-20T09:15:36.646Z,2.83
2018-07-20T09:18:03.783Z,3.10
2018-07-20T09:20:30.942Z,2.60
2018-07-20T09:22:58.117Z,2.80
2018-07-20T09:25:25.269Z,2.40
2018-07-20T09:27:52.498Z,3.47
2018-07-20T09:30:20.011Z,2.80
2018-07-20T09:32:47.768Z,2.80
2018-07-20T09:35:15.440Z,2.83
2018-07-20T09:37:42.583Z,3.27
2018-07-20T09:40:09.751Z,2.83
2018-07-20T09:42:37.486Z,2.75
2018-07-20T09:45:04.940Z,3.60
2018-07-20T09:47:32.123Z,2.67
2018-07-20T09:49:59.241Z,2.52
2018-07-20T09:52:26.467Z,2.80
2018-07-20T09:54:53.642Z,2.90
2018-07-20T09:57:20.906Z,2.80
2018-07-20T09:59:48.191Z,3.20
2018-07-20T10:02:15.455Z,3.20
2018-07-20T10:04:42.609Z,3.50
2018-07-20T10:07:09.748Z,3.90
2018-07-20T10:09:36.892Z,3.15
2018-07-20T10:12:04.071Z,2.98
2018-07-20T10:14:31.207Z,2.85
2018-07-20T10:16:58.346Z,3.27
2018-07-20T10:19:25.501Z,3.33
2018-07-20T10:21:52.769Z,2.95
2018-07-20T10:24:19.995Z,3.02
2018-07-20T10:26:47.421Z,3.50
2018-07-20T10:29:14.638Z,3.22
2018-07-20T10:31:41.855Z,3.30
2018-07-20T10:34:09.000Z,3.33
2018-07-20T10:36:36.192Z,3.27
2018-07-20T10:39:06.124Z,3.52
2018-07-20T10:41:33.295Z,3.27
2018-07-20T10:44:00.498Z,3.10
2018-07-20T10:46:27.677Z,3.35
2018-07-20T10:48:54.813Z,3.00
2018-07-20T10:51:22.126Z,3.40
2018-07-20T10:53:49.363Z,3.10
2018-07-20T10:56:16.603Z,3.25
2018-07-20T10:58:43.714Z,2.75
2018-07-20T11:01:10.838Z,3.12
2018-07-20T11:03:38.000Z,3.45
2018-07-20T11:06:05.322Z,3.33
2018-07-20T11:08:32.428Z,3.60
2018-07-20T11:10:59.561Z,3.27
2018-07-20T11:13:26.729Z,2.98
2018-07-20T11:15:53.878Z,3.25
2018-07-20T11:18:21.162Z,3.35
2018-07-20T11:20:48.412Z,3.30
2018-07-20T11:23:15.931Z,3.33
2018-07-20T11:25:43.100Z,3.42
2018-07-20T11:28:10.264Z,3.50
2018-07-20T11:30:37.422Z,3.42
2018-07-20T11:33:04.583Z,3.15
2018-07-20T11:35:31.724Z,3.40
2018-07-20T11:37:58.865Z,3.35
2018-07-20T11:40:26.038Z,3.58
2018-07-20T11:42:53.275Z,3.35
2018-07-20T11:45:20.510Z,3.47
2018-07-20T11:47:47.761Z,3.00
2018-07-20T11:50:15.114Z,3.52
2018-07-20T11:52:42.282Z,3.72
2018-07-20T11:55:09.452Z,3.45
2018-07-20T11:57:36.583Z,3.10
2018-07-20T12:00:04.254Z,3.12
2018-07-20T12:02:31.378Z,3.80
2018-07-20T12:04:58.571Z,3.67
2018-07-20T12:07:25.701Z,3.80
2018-07-20T12:09:52.849Z,3.62
2018-07-20T12:12:20.190Z,3.90
2018-07-20T12:14:47.392Z,3.52
2018-07-20T12:17:14.596Z,3.65
2018-07-20T12:19:41.702Z,3.37
2018-07-20T12:22:09.146Z,3.15
2018-07-20T12:24:36.554Z,3.30
2018-07-20T12:27:03.687Z,3.27
2018-07-20T12:29:30.814Z,3.50
2018-07-20T12:31:58.114Z,3.40
2018-07-20T12:34:25.284Z,3.17
2018-07-20T12:36:52.494Z,3.22
2018-07-20T12:39:19.756Z,3.85
2018-07-20T12:41:47.396Z,3.35
2018-07-20T12:44:14.630Z,3.77
2018-07-20T12:46:41.856Z,3.67
2018-07-20T12:49:09.014Z,3.35
2018-07-20T12:51:36.122Z,3.62
2018-07-20T12:54:03.279Z,3.52
2018-07-20T12:56:30.411Z,3.65
2018-07-20T12:58:57.604Z,3.10
2018-07-20T13:01:24.762Z,3.70
2018-07-20T13:03:51.919Z,3.70
2018-07-20T13:06:19.170Z,3.45
2018-07-20T13:08:46.367Z,3.40
2018-07-20T13:11:13.670Z,4.10
2018-07-20T13:13:40.918Z,4.08
2018-07-20T13:16:08.075Z,3.90
2018-07-20T13:18:35.213Z,3.60
2018-07-20T13:21:02.351Z,3.90
2018-07-20T13:23:29.454Z,3.80
2018-07-20T13:25:56.604Z,3.90
2018-07-20T13:28:23.805Z,3.80
2018-07-20T13:30:50.988Z,3.45
2018-07-20T13:33:18.154Z,3.47
2018-07-20T13:35:45.451Z,4.35
2018-07-20T13:38:12.602Z,4.05
2018-07-20T13:40:39.800Z,3.70
2018-07-20T13:43:07.008Z,4.05
2018-07-20T13:45:34.448Z,3.60
2018-07-20T13:48:01.596Z,3.60
2018-07-20T13:50:28.750Z,3.22
2018-07-20T13:52:55.962Z,3.80
2018-07-20T13:55:23.059Z,3.45
2018-07-20T13:57:50.314Z,4.22
2018-07-20T14:00:17.610Z,4.30
2018-07-20T14:02:45.135Z,3.58
2018-07-20T14:05:12.736Z,3.60
2018-07-20T14:07:39.847Z,3.60
2018-07-20T14:10:06.998Z,3.40
2018-07-20T14:12:34.143Z,3.15
2018-07-20T14:15:01.279Z,3.70
2018-07-20T14:17:28.425Z,3.72
2018-07-20T14:19:55.545Z,4.10
2018-07-20T14:22:22.695Z,3.72
2018-07-20T14:24:49.866Z,3.47
2018-07-20T14:27:17.035Z,3.87
2018-07-20T14:29:44.223Z,3.33
2018-07-20T14:32:11.425Z,3.77
2018-07-20T14:34:38.549Z,3.92
2018-07-20T14:37:05.704Z,4.12
2018-07-20T14:39:32.865Z,3.70
2018-07-20T14:41:59.964Z,3.52
2018-07-20T14:44:27.116Z,3.25
2018-07-20T14:46:54.262Z,4.20
2018-07-20T14:49:21.461Z,4.28
2018-07-20T14:51:48.844Z,3.47
2018-07-20T14:54:16.336Z,3.85
2018-07-20T14:56:43.455Z,3.85
2018-07-20T14:59:10.648Z,3.60
2018-07-20T15:01:37.840Z,3.70
2018-07-20T15:04:05.576Z,3.40
2018-07-20T15:06:32.875Z,4.00
2018-07-20T15:09:00.026Z,3.90
2018-07-20T15:11:27.150Z,3.90
2018-07-20T15:13:54.270Z,3.77
2018-07-20T15:16:21.425Z,3.72
2018-07-20T15:18:48.582Z,3.67
2018-07-20T15:21:15.689Z,3.25
2018-07-20T15:23:42.904Z,4.03
2018-07-20T15:26:10.216Z,3.65
2018-07-20T15:28:37.540Z,3.35
2018-07-20T15:31:05.186Z,4.40
2018-07-20T15:33:33.485Z,4.00
2018-07-20T15:36:00.737Z,3.30
2018-07-20T15:38:27.846Z,3.98
2018-07-20T15:40:54.976Z,3.70
2018-07-20T15:43:22.107Z,3.35
2018-07-20T15:46:05.599Z,2.87
2018-07-20T15:48:16.358Z,3.08
2018-07-20T15:50:43.537Z,3.70
2018-07-20T15:55:37.961Z,4.00
2018-07-20T15:58:05.274Z,3.83
2018-07-20T16:00:32.590Z,3.40
2018-07-20T16:02:59.737Z,4.00
2018-07-20T16:05:26.894Z,3.58
2018-07-20T16:07:54.049Z,3.60
2018-07-20T16:10:21.184Z,3.50
2018-07-20T16:12:48.320Z,3.80
2018-07-20T16:15:15.534Z,3.85
2018-07-20T16:17:42.662Z,4.00
2018-07-20T16:20:10.049Z,4.05
2018-07-20T16:22:37.701Z,4.50
2018-07-20T16:25:05.179Z,3.90
2018-07-20T16:27:32.426Z,3.95
2018-07-20T16:29:59.569Z,3.80
2018-07-20T16:32:26.694Z,3.80
2018-07-20T16:34:53.814Z,3.47
2018-07-20T16:37:20.970Z,4.20
2018-07-20T16:39:48.103Z,4.10
2018-07-20T16:42:15.243Z,4.28
2018-07-20T16:44:42.369Z,4.10
2018-07-20T16:47:09.543Z,3.65
2018-07-20T16:49:36.686Z,3.92
2018-07-20T16:52:03.967Z,3.58
2018-07-20T16:54:31.134Z,3.65
2018-07-20T16:56:58.479Z,4.00
2018-07-20T16:59:25.630Z,3.72
2018-07-20T17:01:52.774Z,3.60
2018-07-20T17:04:19.920Z,3.83
2018-07-20T17:06:47.034Z,4.12
2018-07-20T17:09:14.188Z,3.58
2018-07-20T17:11:41.452Z,3.55
2018-07-20T17:14:08.785Z,3.35
2018-07-20T17:16:36.106Z,3.90
2018-07-20T17:19:03.815Z,3.58
2018-07-20T17:21:30.994Z,3.95
2018-07-20T17:23:58.506Z,3.52
2018-07-20T17:26:25.673Z,3.33
2018-07-20T17:28:52.913Z,3.83
2018-07-20T17:31:20.112Z,3.65
2018-07-20T17:33:47.284Z,3.90
2018-07-20T17:36:14.421Z,4.45
2018-07-20T17:38:41.540Z,4.65
2018-07-20T17:41:08.716Z,4.20
2018-07-20T17:43:35.922Z,3.95
2018-07-20T17:46:03.166Z,4.08
2018-07-20T17:48:30.303Z,4.10
2018-07-20T17:50:57.435Z,4.83
2018-07-20T17:53:24.582Z,3.70
2018-07-20T17:55:51.762Z,4.50
2018-07-20T17:58:18.884Z,4.15
2018-07-20T18:00:46.034Z,3.92
2018-07-20T18:03:13.314Z,4.10
2018-07-20T18:05:40.530Z,3.92
2018-07-20T18:08:07.768Z,3.92
2018-07-20T18:10:35.016Z,4.33
2018-07-20T18:13:02.302Z,4.22
2018-07-20T18:15:29.424Z,4.37
2018-07-20T18:17:56.733Z,4.28
2018-07-20T18:20:23.978Z,4.67
2018-07-20T18:22:51.123Z,4.08
2018-07-20T18:25:18.265Z,4.42
2018-07-20T18:27:45.406Z,4.20
2018-07-20T18:30:12.629Z,4.17
2018-07-20T18:32:40.303Z,4.60
2018-07-20T18:35:07.539Z,4.87
2018-07-20T18:37:34.714Z,4.47
2018-07-20T18:40:02.031Z,4.30
2018-07-20T18:42:29.208Z,4.30
2018-07-20T18:44:56.344Z,4.42
2018-07-20T18:47:23.473Z,4.25
2018-07-20T18:49:50.594Z,4.50
2018-07-20T18:52:17.770Z,4.37
2018-07-20T18:54:44.907Z,4.33
2018-07-20T18:57:12.068Z,4.05
2018-07-20T18:59:39.625Z,4.70
2018-07-20T19:02:07.294Z,4.47
2018-07-20T19:04:34.489Z,4.28
2018-07-20T19:07:01.831Z,4.53
2018-07-20T19:09:28.987Z,3.87
2018-07-20T19:11:56.136Z,4.22
2018-07-20T19:14:23.303Z,4.17
2018-07-20T19:16:50.430Z,4.20
2018-07-20T19:19:17.618Z,4.28
2018-07-20T19:21:44.749Z,4.40
2018-07-20T19:24:11.936Z,4.83
2018-07-20T19:26:39.209Z,4.85
2018-07-20T19:29:06.463Z,4.33
2018-07-20T19:31:33.804Z,5.33
2018-07-20T19:34:00.986Z,4.78
2018-07-20T19:36:28.144Z,4.47
2018-07-20T19:38:55.309Z,4.45
2018-07-20T19:41:22.421Z,4.53
2018-07-20T19:43:49.559Z,4.42
2018-07-20T19:46:16.751Z,4.83
2018-07-20T19:48:43.864Z,5.30
2018-07-20T19:51:11.038Z,4.75
2018-07-20T19:53:38.287Z,4.72
2018-07-20T19:56:05.545Z,4.10
2018-07-20T19:58:32.712Z,4.00
2018-07-20T20:00:59.876Z,4.10
2018-07-20T20:03:27.102Z,3.85
2018-07-20T20:05:54.229Z,3.80
2018-07-20T20:08:21.370Z,4.10
2018-07-20T20:10:48.542Z,3.52
2018-07-20T20:13:15.662Z,3.77
2018-07-20T20:15:43.015Z,3.62
2018-07-20T20:18:10.084Z,3.50
2018-07-20T20:20:37.688Z,3.22
2018-07-20T20:23:05.145Z,3.65
2018-07-20T20:25:32.462Z,3.80
2018-07-20T20:27:59.603Z,3.50
2018-07-20T20:30:26.774Z,3.87
2018-07-20T20:32:53.902Z,3.70
2018-07-20T20:35:21.022Z,3.83
2018-07-20T20:37:48.219Z,3.90
2018-07-20T20:40:15.372Z,3.42
2018-07-20T20:42:42.528Z,4.33
2018-07-20T20:45:09.850Z,4.00
2018-07-20T20:47:37.419Z,4.12
2018-07-20T20:50:05.078Z,3.90
2018-07-20T20:52:32.483Z,3.47
2018-07-20T20:54:59.701Z,4.20
2018-07-20T20:57:26.940Z,3.27
2018-07-20T20:59:54.090Z,3.58
2018-07-20T21:02:21.210Z,3.15
2018-07-20T21:04:48.330Z,3.80
2018-07-20T21:07:15.490Z,3.85
2018-07-20T21:09:42.735Z,3.33
2018-07-20T21:12:10.225Z,3.75
2018-07-20T21:14:37.307Z,3.62
2018-07-20T21:17:04.575Z,3.75
2018-07-20T21:19:31.821Z,4.22
2018-07-20T21:21:59.063Z,3.72
2018-07-20T21:24:26.187Z,3.95
2018-07-20T21:26:53.366Z,4.17
2018-07-20T21:29:20.482Z,4.28
2018-07-20T21:31:47.602Z,3.60
2018-07-20T21:34:14.764Z,3.55
2018-07-20T21:36:41.891Z,3.67
2018-07-20T21:39:11.076Z,4.30
2018-07-20T21:41:38.606Z,4.10
2018-07-20T21:44:05.913Z,3.90
2018-07-20T21:46:33.167Z,3.67
2018-07-20T21:49:00.287Z,3.55
2018-07-20T21:51:27.430Z,4.28
2018-07-20T21:53:54.566Z,4.53
2018-07-20T21:56:21.675Z,4.40
2018-07-20T21:58:48.791Z,3.87
2018-07-20T22:01:15.957Z,4.30
2018-07-20T22:03:43.074Z,4.13
2018-07-20T22:06:10.302Z,4.33
2018-07-20T22:08:37.499Z,4.20
2018-07-20T22:11:04.782Z,4.20
2018-07-20T22:13:32.000Z,4.60
2018-07-20T22:15:59.162Z,4.83
2018-07-20T22:18:26.315Z,4.50
2018-07-20T22:20:53.462Z,4.53
2018-07-20T22:23:20.792Z,4.10
2018-07-20T22:25:47.871Z,4.67
2018-07-20T22:28:14.991Z,4.97
2018-07-20T22:30:42.188Z,4.72
2018-07-20T22:33:09.472Z,4.55
2018-07-20T22:35:37.193Z,4.20
2018-07-20T22:38:04.480Z,4.55
2018-07-20T22:40:31.856Z,4.40
2018-07-20T22:42:59.034Z,4.35
2018-07-20T22:45:26.168Z,4.33
2018-07-20T22:47:53.702Z,4.60
2018-07-20T22:50:20.825Z,4.28
2018-07-20T22:52:48.002Z,4.50
2018-07-20T22:55:15.140Z,4.67
2018-07-20T22:57:42.308Z,4.67
2018-07-20T23:00:09.568Z,4.70
2018-07-20T23:02:36.773Z,4.43
2018-07-20T23:05:04.426Z,4.37
2018-07-20T23:07:31.707Z,4.37
2018-07-20T23:09:58.817Z,4.40
2018-07-20T23:12:25.947Z,4.58
2018-07-20T23:14:53.075Z,5.03
2018-07-20T23:17:20.230Z,4.72
2018-07-20T23:19:47.363Z,4.62
2018-07-20T23:22:14.471Z,4.92
2018-07-20T23:24:42.537Z,5.23
2018-07-20T23:27:09.652Z,4.63
2018-07-20T23:29:36.869Z,4.87
2018-07-20T23:32:04.073Z,4.47
2018-07-20T23:34:31.220Z,4.90
2018-07-20T23:36:58.315Z,4.83
2018-07-20T23:39:25.427Z,4.55
2018-07-20T23:41:52.543Z,4.83
2018-07-20T23:44:19.670Z,4.83
2018-07-20T23:46:46.783Z,5.07
2018-07-20T23:49:13.900Z,5.13
2018-07-20T23:51:41.046Z,4.87
2018-07-20T23:54:08.265Z,5.00
2018-07-20T23:56:35.526Z,4.80
2018-07-20T23:59:02.733Z,4.70
